• Join FlightAware (Why Join?)
  • Login
  • US Flag 
06:44AM EST


 

Airport Tracker/Info


-or-


 

Live Flight TrackerFlight Track Log ✈ CES2368 ✈ 03-Apr-2014 ✈ ZUJZ / JZH - ZLXY / XIY

Flight Track Log - Related Links

Times and Time Zones

All times are in EDT time to prevent confusion due to time zone crossing. See the CES2368 flight status page for this flight to view local times or setup timezone preferences in your user account.

Time Position Orientation Groundspeed Altitude Reporting Facility
EDT Latitude Longitude Course Direction KTS MPH feet Rate Location/Type
06:22AM 33.2283 104.7938 68° East  Level Estimated
06:23AM 33.2588 104.8867 69° East  Level Estimated
06:24AM 33.2892 104.9798 69° East  Level Estimated
06:25AM 33.3196 105.0729 69° East  Level Estimated
06:26AM 33.3499 105.1661 69° East  Level Estimated
06:27AM 33.3801 105.2593 69° East  Level Estimated
06:28AM 33.4102 105.3526 69° East  Level Estimated
06:29AM 33.4403 105.4460 69° East  Level Estimated
06:30AM 33.4703 105.5395 69° East  Level Estimated
06:31AM 33.5002 105.6330 69° East  Level Estimated
06:32AM 33.5301 105.7265 69° East  Level Estimated
06:33AM 33.5599 105.8202 69° East  Level Estimated
06:34AM 33.5896 105.9138 69° East  Level Estimated
06:35AM 33.6193 106.0076 69° East  Level Estimated
06:36AM 33.6489 106.1014 69° East  Level Estimated
06:37AM 33.6784 106.1953 69° East  Level Estimated
06:38AM 33.7078 106.2893 69° East  Level Estimated
06:39AM 33.7372 106.3833 69° East  Level Estimated
06:40AM 33.7665 106.4774 69° East  Level Estimated
06:41AM 33.7957 106.5715 69° East  Level Estimated
06:42AM 33.8249 106.6657 70° East  Level Estimated
06:43AM 33.8540 106.7600 70° East  Level Estimated
06:44AM 33.8830 106.8544 70° East  Level Estimated
06:45AM 33.9119 106.9488 70° East  Level Estimated
06:46AM 33.9408 107.0432 70° East  Level Estimated
06:47AM 33.9696 107.1378 70° East  Level Estimated
06:48AM 33.9983 107.2324 70° East  Level Estimated
06:49AM 34.0270 107.3270 70° East  Level Estimated
06:50AM 34.0555 107.4218 70° East  Level Estimated
06:51AM 34.0841 107.5165 70° East  Level Estimated
06:52AM 34.1125 107.6114 70° East  Level Estimated
06:53AM 34.1409 107.7063 70° East  Level Estimated
06:54AM 34.1691 107.8013 70° East  Level Estimated
06:55AM 34.1974 107.8963 70° East  Level Estimated
06:56AM 34.2255 107.9914 70° East  Level Estimated
06:57AM 34.2536 108.0866 70° East  Level Estimated
06:58AM 34.2816 108.1818 70° East  Level Estimated
06:59AM 34.3095 108.2771 70° East  Level Estimated
07:00AM 34.3373 108.3725 70° East  Level Estimated
07:01AM 34.3651 108.4679 71° East  Level Estimated
07:02AM 34.3928 108.5634 71° East  Level Estimated
07:03AM 34.4204 108.6590 71° East  Level Estimated
07:04AM 34.4471 108.7516 71° East  Level Estimated
07:05AM 34.4471 108.7516 North  Level Estimated
07:06AM 34.4471 108.7516 North  Level Estimated
07:07AM 34.4471 108.7516 North  Level Estimated
07:08AM 34.4471 108.7516 North  Level Estimated
07:09AM 34.4471 108.7516 North  Level Estimated
07:10AM 34.4471 108.7516 North  Level Estimated
07:11AM 34.4471 108.7516 North  Level Estimated
07:12AM 34.4471 108.7516 North  Level Estimated
07:13AM 34.4471 108.7516 North  Level Estimated
07:14AM 34.4471 108.7516 North  Level Estimated
07:15AM 34.4471 108.7516 North  Level Estimated
07:16AM 34.4471 108.7516 North  Level Estimated
07:17AM 34.4471 108.7516 North  Level Estimated
07:18AM 34.4471 108.7516 North  Level Estimated
07:19AM 34.4471 108.7516 North  Level Estimated
07:20AM 34.4471 108.7516 North  Level Estimated
07:21AM 34.4471 108.7516 North  Level Estimated
07:22AM 34.4471 108.7516 North  Level Estimated
07:23AM 34.4471 108.7516 North  Level Estimated